Time;durP1;ratioP1;P1;durP2;ratioP2;P2;SDS_P1;SDS_P2;PMS_P1;PMS_P2;Temp;Humidity;BMP_temperature;BMP_pressure;BME280_temperature;BME280_humidity;BME280_pressure;Samples;Min_cycle;Max_cycle;Signal;HPM_P1;HPM_P2
2023/10/29 00:00:38;;;;;;;6.38;4.70;;;12.60;99.90;;;;;;5096702;28;20322;-87
2023/10/29 00:03:06;;;;;;;11.90;5.45;;;12.60;99.90;;;;;;5095040;28;20257;-81
2023/10/29 00:05:33;;;;;;;6.88;5.07;;;12.60;99.90;;;;;;5094080;28;20230;-81
2023/10/29 00:08:00;;;;;;;4.47;4.10;;;12.60;99.90;;;;;;5093449;28;20314;-80
2023/10/29 00:10:27;;;;;;;5.38;4.18;;;12.60;99.90;;;;;;5094014;28;20698;-86
2023/10/29 00:13:06;;;;;;;;;;;;;;;;;;;;;
2023/10/29 00:15:45;;;;;;;8.50;4.57;;;12.60;99.90;;;;;;5094378;28;20378;-86
2023/10/29 00:18:13;;;;;;;7.13;5.40;;;12.60;99.90;;;;;;5096385;28;20264;-86
2023/10/29 00:20:40;;;;;;;8.40;6.65;;;12.60;99.90;;;;;;5094320;28;20235;-81
2023/10/29 00:23:07;;;;;;;4.57;4.18;;;12.60;99.90;;;;;;5093529;28;20315;-81
2023/10/29 00:25:36;;;;;;;6.75;5.05;;;12.50;99.90;;;;;;5093850;28;20233;-81
2023/10/29 00:28:03;;;;;;;5.47;4.88;;;12.50;99.90;;;;;;5093431;28;20285;-86
2023/10/29 00:30:56;;;;;;;5.60;5.05;;;12.50;99.90;;;;;;5096599;28;20226;-86
2023/10/29 00:33:26;;;;;;;8.93;6.80;;;12.50;99.90;;;;;;5088272;28;20265;-86
2023/10/29 00:35:55;;;;;;;6.63;4.35;;;12.50;99.90;;;;;;5097269;28;20307;-86
2023/10/29 00:38:23;;;;;;;7.43;4.10;;;12.50;99.90;;;;;;5098508;28;20227;-86
2023/10/29 00:40:50;;;;;;;4.50;4.10;;;12.50;99.90;;;;;;5099360;28;20251;-86
2023/10/29 00:43:23;;;;;;;6.75;4.43;;;12.50;99.90;;;;;;5096346;28;20235;-81
2023/10/29 00:45:53;;;;;;;5.90;3.70;;;12.50;99.90;;;;;;5097535;28;20309;-81
2023/10/29 00:48:22;;;;;;;5.07;4.03;;;12.50;99.90;;;;;;5096398;28;20231;-81
2023/10/29 00:50:53;;;;;;;7.78;5.25;;;12.50;99.90;;;;;;5097492;28;20761;-82
2023/10/29 00:53:21;;;;;;;5.40;3.15;;;12.50;99.90;;;;;;5096555;28;25817;-88
2023/10/29 00:55:49;;;;;;;5.07;3.78;;;12.50;99.90;;;;;;5098111;28;20229;-87
2023/10/29 00:58:17;;;;;;;7.00;3.90;;;12.50;99.90;;;;;;5097738;28;20227;-87
2023/10/29 01:00:44;;;;;;;5.07;4.57;;;12.50;99.90;;;;;;5098925;28;20227;-87
2023/10/29 01:03:11;;;;;;;6.70;5.70;;;12.50;99.90;;;;;;5098702;28;20288;-87
2023/10/29 01:05:42;;;;;;;5.55;3.00;;;12.50;99.90;;;;;;5097903;28;20227;-88
2023/10/29 01:08:09;;;;;;;6.25;3.45;;;12.50;99.90;;;;;;5096494;28;20231;-81
2023/10/29 01:10:39;;;;;;;4.82;3.75;;;12.50;99.90;;;;;;5098004;28;20315;-81
2023/10/29 01:13:06;;;;;;;4.53;4.13;;;12.40;99.90;;;;;;5096185;28;20241;-81
2023/10/29 01:15:34;;;;;;;4.75;3.20;;;12.50;99.90;;;;;;5097437;28;20585;-81
2023/10/29 01:18:01;;;;;;;3.17;2.80;;;12.50;99.90;;;;;;5097307;28;20219;-81
2023/10/29 01:20:28;;;;;;;4.15;3.50;;;12.40;99.90;;;;;;5096896;28;20215;-81
2023/10/29 01:22:57;;;;;;;9.98;3.90;;;12.40;99.90;;;;;;5098047;28;20223;-87
2023/10/29 01:25:24;;;;;;;4.72;2.90;;;12.40;99.90;;;;;;5097435;28;20352;-87
2023/10/29 01:27:51;;;;;;;5.60;3.70;;;12.40;99.90;;;;;;5097732;28;20289;-88
2023/10/29 01:30:18;;;;;;;3.97;2.95;;;12.40;99.90;;;;;;5095414;28;20220;-87
2023/10/29 01:32:45;;;;;;;5.78;3.55;;;12.40;99.90;;;;;;5077681;28;20685;-81
2023/10/29 01:35:12;;;;;;;5.43;3.42;;;12.40;99.90;;;;;;5077612;28;20228;-87
2023/10/29 01:37:39;;;;;;;4.85;3.40;;;12.40;99.90;;;;;;5077722;28;20322;-87
2023/10/29 01:40:12;;;;;;;4.07;3.67;;;12.30;99.90;;;;;;5076415;28;20597;-81
2023/10/29 01:42:39;;;;;;;4.50;3.22;;;12.30;99.90;;;;;;5076617;28;20216;-81
2023/10/29 01:45:08;;;;;;;3.35;2.80;;;12.30;99.90;;;;;;5078052;28;20251;-87
2023/10/29 01:47:38;;;;;;;4.07;3.33;;;12.30;99.90;;;;;;5084349;28;20227;-88
2023/10/29 01:50:07;;;;;;;3.75;3.45;;;12.30;99.90;;;;;;5097802;28;20685;-81
2023/10/29 01:52:34;;;;;;;13.00;5.50;;;12.30;99.90;;;;;;5097479;28;20249;-81
2023/10/29 01:55:01;;;;;;;5.07;3.80;;;12.30;99.90;;;;;;5087759;28;20223;-85
2023/10/29 01:57:29;;;;;;;4.00;2.85;;;12.30;99.90;;;;;;5097181;28;20310;-87
2023/10/29 01:59:57;;;;;;;4.60;3.25;;;12.30;99.90;;;;;;5098531;28;20280;-81
2023/10/29 02:02:24;;;;;;;4.15;3.17;;;12.30;99.90;;;;;;5097644;28;20976;-81
2023/10/29 02:04:54;;;;;;;4.95;3.90;;;12.30;99.90;;;;;;5084917;28;20238;-87
2023/10/29 02:07:21;;;;;;;4.85;3.35;;;12.30;99.90;;;;;;5098175;28;20296;-86
2023/10/29 02:09:48;;;;;;;5.60;3.53;;;12.30;99.90;;;;;;5097759;28;20685;-80
2023/10/29 02:12:15;;;;;;;3.42;3.13;;;12.40;99.90;;;;;;5096688;28;20299;-81
2023/10/29 02:14:44;;;;;;;4.38;3.58;;;12.40;99.90;;;;;;5097482;28;20231;-80
2023/10/29 02:17:11;;;;;;;4.97;2.70;;;12.40;99.90;;;;;;5096099;28;20561;-80
2023/10/29 02:19:39;;;;;;;5.03;2.63;;;12.40;99.90;;;;;;5096768;28;20306;-81
2023/10/29 02:22:08;;;;;;;4.53;3.20;;;12.40;99.90;;;;;;5095877;28;20235;-80
2023/10/29 02:24:34;;;;;;;5.53;3.65;;;12.40;99.90;;;;;;5096461;28;20811;-81
2023/10/29 02:27:01;;;;;;;4.20;2.60;;;12.40;99.90;;;;;;5095826;28;20689;-87
2023/10/29 02:29:28;;;;;;;7.35;3.70;;;12.40;99.90;;;;;;5095868;28;20246;-87
2023/10/29 02:31:55;;;;;;;3.05;2.85;;;12.40;99.90;;;;;;5096302;28;20534;-81
2023/10/29 02:34:22;;;;;;;4.47;3.05;;;12.40;99.90;;;;;;5095565;28;20254;-87
2023/10/29 02:36:49;;;;;;;3.20;2.88;;;12.40;99.90;;;;;;5094715;28;20314;-84
2023/10/29 02:39:19;;;;;;;3.30;3.10;;;12.40;99.90;;;;;;5095059;28;20254;-80
2023/10/29 02:41:52;;;;;;;12.35;4.20;;;12.40;99.90;;;;;;5095609;28;20251;-80
2023/10/29 02:44:19;;;;;;;5.32;3.72;;;12.40;99.90;;;;;;5094867;28;20231;-87
2023/10/29 02:46:46;;;;;;;2.55;2.35;;;12.40;99.90;;;;;;5095634;28;20684;-87
2023/10/29 02:49:13;;;;;;;3.05;2.28;;;12.40;99.90;;;;;;5084202;28;20299;-81
2023/10/29 02:51:40;;;;;;;3.83;3.28;;;12.40;99.90;;;;;;5095311;28;20251;-81
2023/10/29 02:54:07;;;;;;;3.70;3.30;;;12.50;99.90;;;;;;5094667;28;20227;-81
2023/10/29 02:56:37;;;;;;;3.95;2.70;;;12.40;99.90;;;;;;5095572;28;20227;-80
2023/10/29 02:59:05;;;;;;;4.45;2.95;;;12.40;99.90;;;;;;5094298;28;20232;-87
2023/10/29 03:01:36;;;;;;;3.97;2.80;;;12.40;99.90;;;;;;5095692;28;20279;-87
2023/10/29 03:04:04;;;;;;;4.38;2.88;;;12.40;99.90;;;;;;5095428;28;20223;-86
2023/10/29 03:06:31;;;;;;;3.50;3.20;;;12.40;99.90;;;;;;5096016;28;20235;-87
2023/10/29 03:08:59;;;;;;;2.90;2.63;;;12.40;99.90;;;;;;5095421;28;20224;-81
2023/10/29 03:11:26;;;;;;;2.80;2.42;;;12.40;99.90;;;;;;5086919;28;20237;-81
2023/10/29 03:13:54;;;;;;;5.03;3.17;;;12.40;99.90;;;;;;5096394;28;20219;-87
2023/10/29 03:16:21;;;;;;;4.28;3.45;;;12.40;99.90;;;;;;5096212;28;20310;-87
2023/10/29 03:18:48;;;;;;;4.82;3.55;;;12.40;99.90;;;;;;5099580;28;20223;-79
2023/10/29 03:21:17;;;;;;;10.18;3.97;;;12.40;99.90;;;;;;5095799;28;20224;-81
2023/10/29 03:23:44;;;;;;;4.15;3.70;;;12.40;99.90;;;;;;5099694;28;20249;-81
2023/10/29 03:26:11;;;;;;;3.58;2.90;;;12.50;99.90;;;;;;5095714;28;20220;-81
2023/10/29 03:28:39;;;;;;;4.32;3.20;;;12.40;99.90;;;;;;5095353;28;20219;-81
2023/10/29 03:31:16;;;;;;;7.88;3.25;;;12.40;99.90;;;;;;5095800;28;20223;-88
2023/10/29 03:33:46;;;;;;;5.30;3.40;;;12.40;99.90;;;;;;5094482;28;20219;-88
2023/10/29 03:36:13;;;;;;;4.32;3.40;;;12.40;99.90;;;;;;5095222;28;20309;-88
2023/10/29 03:38:40;;;;;;;3.72;3.42;;;12.40;99.90;;;;;;5083966;28;20638;-87
2023/10/29 03:41:20;;;;;;;4.70;3.15;;;12.40;99.90;;;;;;5094470;28;20288;-88
2023/10/29 03:43:47;;;;;;;5.50;4.00;;;12.40;99.90;;;;;;5094530;28;20219;-88
2023/10/29 03:46:15;;;;;;;9.23;3.30;;;12.40;99.90;;;;;;5094615;28;20223;-88
2023/10/29 03:48:44;;;;;;;5.25;3.20;;;12.40;99.90;;;;;;5094084;28;20234;-88
2023/10/29 03:51:16;;;;;;;4.97;4.18;;;12.40;99.90;;;;;;5094460;28;20530;-88
2023/10/29 03:53:43;;;;;;;3.75;3.15;;;12.40;99.90;;;;;;5093462;28;20227;-87
2023/10/29 03:56:10;;;;;;;4.00;3.70;;;12.40;99.90;;;;;;5093440;28;20231;-81
2023/10/29 03:58:37;;;;;;;4.25;3.33;;;12.40;99.90;;;;;;5093420;28;20552;-81
2023/10/29 04:01:04;;;;;;;4.55;3.72;;;12.40;99.90;;;;;;5093745;28;20243;-81
2023/10/29 04:03:34;;;;;;;7.22;3.88;;;12.40;99.90;;;;;;5093498;28;20220;-80
2023/10/29 04:06:08;;;;;;;4.55;4.05;;;12.40;99.90;;;;;;5097672;28;20223;-80
2023/10/29 04:08:35;;;;;;;5.53;3.65;;;12.40;99.90;;;;;;5097981;28;20255;-80
2023/10/29 04:11:03;;;;;;;5.60;3.97;;;12.40;99.90;;;;;;5098409;28;20230;-80
2023/10/29 04:13:30;;;;;;;5.70;4.18;;;12.40;99.90;;;;;;5097914;28;20553;-86
2023/10/29 04:15:59;;;;;;;8.00;3.90;;;12.40;99.90;;;;;;5098386;28;20243;-80
2023/10/29 04:18:31;;;;;;;4.18;3.65;;;12.40;99.90;;;;;;5101274;28;20325;-86
2023/10/29 04:20:59;;;;;;;4.35;3.53;;;12.40;99.90;;;;;;5099761;28;20282;-87
2023/10/29 04:23:26;;;;;;;8.68;3.60;;;12.40;99.90;;;;;;5094601;28;20254;-80
2023/10/29 04:25:53;;;;;;;5.32;3.75;;;12.40;99.90;;;;;;5097966;28;20303;-80
2023/10/29 04:28:20;;;;;;;5.25;3.30;;;12.40;99.90;;;;;;5098143;28;20230;-80
2023/10/29 04:30:53;;;;;;;5.93;3.25;;;12.50;99.90;;;;;;5097693;28;20326;-80
2023/10/29 04:33:20;;;;;;;7.18;3.85;;;12.50;99.90;;;;;;5097928;28;20219;-79
2023/10/29 04:35:47;;;;;;;4.60;4.18;;;12.40;99.90;;;;;;5097400;28;20259;-80
2023/10/29 04:38:15;;;;;;;11.82;4.18;;;12.50;99.90;;;;;;5098047;28;20310;-87
2023/10/29 04:40:43;;;;;;;4.50;4.05;;;12.40;99.90;;;;;;5097269;28;20716;-80
2023/10/29 04:43:10;;;;;;;4.90;3.50;;;12.40;99.90;;;;;;5097911;28;20247;-80
2023/10/29 04:45:36;;;;;;;5.65;4.20;;;12.50;99.90;;;;;;5097557;28;20243;-80
2023/10/29 04:48:04;;;;;;;6.65;4.25;;;12.50;99.90;;;;;;5097923;28;20235;-87
2023/10/29 04:50:31;;;;;;;6.97;4.25;;;12.50;99.90;;;;;;5097315;28;20223;-85
2023/10/29 04:52:58;;;;;;;5.15;3.25;;;12.50;99.90;;;;;;5097678;28;20290;-87
2023/10/29 04:55:27;;;;;;;4.85;3.30;;;12.50;99.90;;;;;;5097148;28;20302;-87
2023/10/29 04:57:56;;;;;;;3.90;3.20;;;12.50;99.90;;;;;;5096533;28;20653;-87
2023/10/29 05:00:23;;;;;;;4.10;3.28;;;12.40;99.90;;;;;;5097044;28;20212;-87
2023/10/29 05:02:50;;;;;;;3.28;2.97;;;12.40;99.90;;;;;;5096066;28;20242;-87
2023/10/29 05:05:17;;;;;;;3.22;2.92;;;12.40;99.90;;;;;;5096996;28;20306;-88
2023/10/29 05:07:45;;;;;;;6.60;3.85;;;12.50;99.90;;;;;;5095984;28;20289;-88
2023/10/29 05:10:13;;;;;;;4.20;2.92;;;12.50;99.90;;;;;;5096791;28;20602;-88
2023/10/29 05:12:42;;;;;;;7.38;3.35;;;12.50;99.90;;;;;;5096095;28;20230;-81
2023/10/29 05:15:12;;;;;;;4.07;3.25;;;12.50;99.90;;;;;;5095919;28;20689;-88
2023/10/29 05:17:40;;;;;;;5.05;3.38;;;12.50;99.90;;;;;;5086047;28;20219;-87
2023/10/29 05:20:10;;;;;;;3.10;2.90;;;12.50;99.90;;;;;;5087534;28;20556;-88
2023/10/29 05:22:37;;;;;;;4.32;2.38;;;12.50;99.90;;;;;;5096128;28;20224;-88
2023/10/29 05:25:05;;;;;;;5.38;3.05;;;12.50;99.90;;;;;;5095917;28;20318;-81
2023/10/29 05:27:31;;;;;;;5.22;3.25;;;12.50;99.90;;;;;;5096066;28;20689;-81
2023/10/29 05:30:00;;;;;;;6.75;2.55;;;12.50;99.90;;;;;;5096618;28;20298;-81
2023/10/29 05:32:28;;;;;;;3.00;2.75;;;12.60;99.90;;;;;;5096059;28;20229;-81
2023/10/29 05:34:55;;;;;;;3.90;3.10;;;12.60;99.90;;;;;;5096529;28;20220;-88
2023/10/29 05:37:23;;;;;;;3.38;3.03;;;12.60;99.90;;;;;;5095825;28;20215;-85
2023/10/29 05:39:51;;;;;;;3.13;2.80;;;12.60;99.90;;;;;;5096140;28;20253;-81
2023/10/29 05:42:18;;;;;;;3.75;3.33;;;12.60;99.90;;;;;;5096077;28;20222;-81
2023/10/29 05:44:45;;;;;;;3.88;3.10;;;12.70;99.90;;;;;;5095473;28;20238;-81
2023/10/29 05:47:14;;;;;;;3.25;2.95;;;12.60;99.90;;;;;;5096352;28;20657;-81
2023/10/29 05:49:41;;;;;;;2.65;2.45;;;12.60;99.90;;;;;;5096216;28;20246;-81
2023/10/29 05:53:11;;;;;;;6.45;2.67;;;12.60;99.90;;;;;;5095969;28;20234;-86
2023/10/29 05:55:39;;;;;;;7.90;3.33;;;12.60;99.90;;;;;;5095652;28;20242;-81
2023/10/29 05:58:06;;;;;;;6.28;2.60;;;12.70;99.90;;;;;;5095365;28;20505;-82
2023/10/29 06:00:33;;;;;;;6.23;2.70;;;12.70;99.90;;;;;;5086282;28;20227;-87
2023/10/29 06:03:01;;;;;;;3.13;2.50;;;12.70;99.90;;;;;;5094960;28;20472;-80
2023/10/29 06:05:31;;;;;;;3.78;2.60;;;12.70;99.90;;;;;;5095763;28;20497;-80
2023/10/29 06:07:58;;;;;;;4.13;3.20;;;12.70;99.90;;;;;;5095701;28;20251;-80
2023/10/29 06:10:25;;;;;;;4.50;2.90;;;12.70;99.90;;;;;;5095408;28;20302;-80
2023/10/29 06:12:52;;;;;;;4.70;2.38;;;12.80;99.90;;;;;;5095862;28;20227;-80
2023/10/29 06:15:19;;;;;;;3.08;2.65;;;12.80;99.90;;;;;;5095068;28;20231;-81
2023/10/29 06:17:46;;;;;;;6.20;3.30;;;12.80;99.90;;;;;;5095410;28;20227;-81
2023/10/29 06:20:20;;;;;;;4.05;2.70;;;12.80;99.90;;;;;;5095041;28;20693;-80
2023/10/29 06:22:48;;;;;;;3.97;2.60;;;12.90;99.90;;;;;;5084560;28;20308;-87
2023/10/29 06:25:16;;;;;;;2.90;2.30;;;12.90;99.90;;;;;;5093645;28;20288;-81
2023/10/29 06:30:23;;;;;;;3.20;1.80;;;12.90;99.90;;;;;;5087586;28;20215;-87
2023/10/29 06:32:50;;;;;;;3.40;2.05;;;12.90;99.90;;;;;;5096421;28;20302;-86
2023/10/29 06:35:19;;;;;;;3.15;2.30;;;12.90;99.90;;;;;;5094151;28;20306;-80
2023/10/29 06:37:46;;;;;;;4.30;2.90;;;12.90;99.90;;;;;;5095059;28;20225;-80
2023/10/29 06:40:13;;;;;;;4.05;2.53;;;12.90;99.90;;;;;;5094250;28;20673;-81
2023/10/29 06:42:40;;;;;;;3.20;2.50;;;13.00;99.90;;;;;;5095616;28;20241;-86
2023/10/29 06:45:09;;;;;;;6.88;2.40;;;13.00;99.90;;;;;;5095773;28;20238;-87
2023/10/29 06:47:36;;;;;;;3.78;2.20;;;13.00;99.90;;;;;;5096730;28;20227;-87
2023/10/29 06:50:06;;;;;;;2.88;2.00;;;13.00;99.90;;;;;;5097477;28;20249;-86
2023/10/29 06:52:36;;;;;;;3.23;2.37;;;13.00;99.90;;;;;;5096697;28;20240;-86
2023/10/29 06:55:04;;;;;;;3.78;2.58;;;13.10;99.90;;;;;;5096481;28;20477;-86
2023/10/29 06:57:31;;;;;;;3.20;2.20;;;13.10;99.90;;;;;;5097117;28;20251;-87
2023/10/29 07:00:01;;;;;;;3.45;2.13;;;13.10;99.90;;;;;;5099834;28;20493;-86
2023/10/29 07:02:46;;;;;;;6.53;3.27;;;13.10;99.90;;;;;;5095506;28;20264;-87
2023/10/29 07:05:13;;;;;;;2.90;2.00;;;13.10;99.90;;;;;;5093701;28;20545;-81
2023/10/29 07:07:41;;;;;;;5.18;2.80;;;13.10;99.90;;;;;;5094829;28;20865;-81
2023/10/29 07:10:12;;;;;;;3.10;2.50;;;13.10;99.90;;;;;;5083711;28;20783;-87
2023/10/29 07:12:43;;;;;;;4.32;2.38;;;13.10;99.90;;;;;;5094691;28;20226;-87
2023/10/29 07:15:11;;;;;;;2.92;2.45;;;13.10;99.90;;;;;;5093748;28;20231;-86
2023/10/29 07:17:39;;;;;;;3.95;2.63;;;13.10;99.90;;;;;;5095090;28;20246;-87
2023/10/29 07:20:08;;;;;;;5.38;2.10;;;13.20;99.90;;;;;;5094340;28;20227;-80
2023/10/29 07:22:35;;;;;;;3.70;3.13;;;13.20;99.90;;;;;;5095104;28;20673;-80
2023/10/29 07:25:07;;;;;;;4.00;2.13;;;13.20;99.90;;;;;;5096755;28;20537;-80
2023/10/29 07:27:34;;;;;;;2.92;2.20;;;13.20;99.90;;;;;;5099352;28;20457;-80
2023/10/29 07:30:02;;;;;;;2.58;2.38;;;13.20;99.90;;;;;;5099212;28;20215;-81
2023/10/29 07:32:29;;;;;;;3.63;2.35;;;13.20;99.90;;;;;;5098027;28;20293;-87
2023/10/29 07:34:56;;;;;;;2.80;2.30;;;13.20;99.90;;;;;;5108328;28;20227;-88
2023/10/29 07:37:23;;;;;;;4.20;2.33;;;13.20;99.90;;;;;;5102656;28;20485;-81
2023/10/29 07:39:51;;;;;;;5.23;2.27;;;13.20;99.90;;;;;;5097296;28;20473;-87
2023/10/29 07:42:21;;;;;;;4.07;2.70;;;13.20;99.90;;;;;;5095388;28;20536;-87
2023/10/29 07:44:48;;;;;;;2.67;1.98;;;13.20;99.90;;;;;;5094592;28;20284;-80
2023/10/29 07:47:27;;;;;;;3.00;2.65;;;13.20;99.90;;;;;;5094007;28;20561;-87
2023/10/29 07:49:54;;;;;;;5.03;2.80;;;13.20;99.90;;;;;;5094306;28;20531;-80
2023/10/29 07:52:24;;;;;;;4.15;2.35;;;13.30;99.90;;;;;;5092884;28;20911;-86
2023/10/29 07:54:52;;;;;;;6.80;2.40;;;13.30;99.90;;;;;;5094486;28;20691;-86
2023/10/29 07:57:31;;;;;;;3.53;3.17;;;13.20;99.90;;;;;;5081807;28;20473;-79
2023/10/29 07:59:59;;;;;;;2.57;2.37;;;13.20;99.90;;;;;;5092728;28;20238;-85
2023/10/29 08:02:26;;;;;;;3.25;2.40;;;13.20;99.90;;;;;;5093366;28;20970;-87
2023/10/29 08:05:16;;;;;;;5.40;2.40;;;13.30;99.90;;;;;;5093170;28;20249;-87
2023/10/29 08:07:43;;;;;;;5.13;3.40;;;13.30;99.90;;;;;;5084575;28;20229;-86
2023/10/29 08:10:11;;;;;;;5.67;2.70;;;13.20;99.90;;;;;;5094221;28;20552;-86
2023/10/29 08:12:40;;;;;;;9.63;3.10;;;13.20;99.90;;;;;;5093896;28;20490;-86
2023/10/29 08:15:07;;;;;;;3.40;2.20;;;13.20;99.90;;;;;;5093325;28;20517;-86
2023/10/29 08:17:37;;;;;;;7.45;2.20;;;13.30;99.90;;;;;;5093884;28;20779;-81
2023/10/29 08:20:06;;;;;;;4.38;2.25;;;13.30;99.90;;;;;;5093444;28;20284;-87
2023/10/29 08:22:33;;;;;;;3.90;1.80;;;13.20;99.90;;;;;;5097896;28;20608;-80
2023/10/29 08:25:00;;;;;;;2.60;2.40;;;13.30;99.90;;;;;;5094415;28;20490;-87
2023/10/29 08:27:27;;;;;;;2.90;2.43;;;13.30;99.90;;;;;;5083463;28;20473;-81
2023/10/29 08:29:56;;;;;;;3.27;2.03;;;13.30;99.90;;;;;;5094009;28;20492;-82
2023/10/29 08:32:32;;;;;;;4.17;2.30;;;13.30;99.90;;;;;;5074741;28;20963;-80
2023/10/29 08:35:00;;;;;;;4.90;2.80;;;13.40;99.90;;;;;;5079705;28;20489;-87
2023/10/29 08:37:46;;;;;;;4.37;3.00;;;13.30;99.90;;;;;;5080677;28;20480;-86
2023/10/29 08:40:14;;;;;;;5.33;2.60;;;13.40;99.90;;;;;;5092082;28;20476;-86
2023/10/29 08:42:45;;;;;;;3.10;2.50;;;13.40;99.90;;;;;;5085136;28;20932;-86
2023/10/29 08:45:26;;;;;;;5.37;2.50;;;13.40;99.90;;;;;;5068669;28;20478;-87
2023/10/29 08:47:58;;;;;;;3.00;2.63;;;13.40;99.90;;;;;;5067299;28;20481;-87
2023/10/29 08:50:27;;;;;;;3.70;2.43;;;13.40;99.90;;;;;;5093110;28;20867;-86
2023/10/29 08:52:54;;;;;;;3.40;2.53;;;13.50;99.90;;;;;;5086838;28;20974;-86
2023/10/29 08:55:21;;;;;;;2.73;1.93;;;13.50;99.90;;;;;;5096560;28;20469;-88
2023/10/29 08:57:50;;;;;;;2.60;2.40;;;13.50;99.90;;;;;;5096610;28;20544;-86
2023/10/29 09:00:20;;;;;;;6.25;2.95;;;13.50;99.90;;;;;;5063875;28;20542;-87
2023/10/29 09:06:17;;;;;;;2.80;2.17;;;13.60;99.90;;;;;;5043976;28;20988;-87
2023/10/29 09:08:48;;;;;;;2.80;2.07;;;13.60;99.90;;;;;;5096363;28;20580;-86
2023/10/29 09:14:25;;;;;;;3.17;2.10;;;13.70;99.90;;;;;;5091221;28;20433;-81
2023/10/29 09:16:53;;;;;;;6.50;4.13;;;13.70;99.90;;;;;;5096321;28;20461;-81
2023/10/29 09:19:20;;;;;;;5.63;5.07;;;13.70;99.90;;;;;;5080729;28;20481;-80
2023/10/29 09:21:51;;;;;;;7.07;3.00;;;13.80;99.90;;;;;;5095948;28;20469;-79
2023/10/29 09:24:18;;;;;;;3.13;2.83;;;13.80;99.90;;;;;;5096409;28;20469;-82
2023/10/29 09:26:44;;;;;;;2.90;2.70;;;13.80;99.90;;;;;;5096143;28;20970;-86
2023/10/29 09:29:17;;;;;;;2.20;2.00;;;13.90;99.90;;;;;;5097006;28;20530;-88
2023/10/29 09:31:45;;;;;;;3.43;2.50;;;13.80;99.90;;;;;;5095829;28;20462;-80
2023/10/29 09:34:13;;;;;;;3.03;2.80;;;13.90;99.90;;;;;;5085101;28;20469;-80
2023/10/29 09:36:42;;;;;;;3.50;2.60;;;13.90;99.90;;;;;;5095558;28;20477;-81
2023/10/29 09:39:22;;;;;;;3.57;2.77;;;13.90;99.90;;;;;;5095571;28;20557;-88
2023/10/29 09:41:58;;;;;;;3.70;2.53;;;13.90;99.90;;;;;;5096749;28;20477;-86
2023/10/29 09:44:26;;;;;;;3.00;2.37;;;14.00;99.90;;;;;;5096099;28;20557;-88
2023/10/29 09:46:58;;;;;;;5.00;3.60;;;14.00;99.90;;;;;;5097366;28;20477;-86
2023/10/29 09:49:26;;;;;;;5.80;3.53;;;14.00;99.90;;;;;;5088537;28;20445;-86
2023/10/29 09:51:53;;;;;;;3.50;2.40;;;14.10;99.90;;;;;;5086492;28;20475;-87
2023/10/29 09:54:21;;;;;;;5.17;4.50;;;14.10;99.90;;;;;;5089768;28;20562;-81
2023/10/29 09:56:50;;;;;;;4.10;3.50;;;14.10;99.90;;;;;;5079000;28;20462;-80
2023/10/29 09:59:18;;;;;;;4.80;2.90;;;14.20;99.90;;;;;;5095219;28;20480;-80
2023/10/29 10:01:47;;;;;;;6.40;2.60;;;14.20;99.90;;;;;;5085191;28;20497;-81
2023/10/29 10:04:14;;;;;;;3.17;2.37;;;14.20;99.90;;;;;;5074522;28;20477;-80
2023/10/29 10:06:46;;;;;;;2.67;2.00;;;14.20;99.90;;;;;;5065889;28;20523;-82
2023/10/29 10:09:16;;;;;;;3.50;2.80;;;14.30;99.90;;;;;;5063050;28;20513;-80
2023/10/29 10:11:43;;;;;;;2.17;1.97;;;14.30;99.90;;;;;;5088833;28;20450;-81
2023/10/29 10:14:25;;;;;;;5.20;3.60;;;14.30;99.90;;;;;;5095119;28;20495;-80
2023/10/29 10:17:08;;;;;;;4.90;4.40;;;14.30;99.90;;;;;;5094966;28;20449;-80
2023/10/29 10:19:35;;;;;;;4.60;2.97;;;14.30;99.90;;;;;;5094904;28;20466;-87
2023/10/29 10:22:04;;;;;;;5.20;3.30;;;14.30;99.90;;;;;;5095369;28;20533;-81
2023/10/29 10:24:41;;;;;;;4.00;3.70;;;14.40;99.90;;;;;;5094719;28;20489;-86
2023/10/29 10:27:09;;;;;;;4.63;3.80;;;14.40;99.90;;;;;;5097363;28;20457;-87
2023/10/29 10:29:38;;;;;;;3.57;2.77;;;14.40;99.90;;;;;;5096304;28;20484;-88
2023/10/29 10:32:08;;;;;;;3.23;2.83;;;14.40;99.90;;;;;;5095240;28;21001;-80
2023/10/29 10:34:37;;;;;;;2.13;1.93;;;14.40;99.90;;;;;;5094755;28;20473;-86
2023/10/29 10:37:06;;;;;;;3.70;3.40;;;14.40;99.90;;;;;;5095954;28;20466;-87
2023/10/29 10:39:37;;;;;;;2.40;2.20;;;14.40;99.90;;;;;;5076835;28;20509;-87
2023/10/29 10:42:04;;;;;;;2.10;1.90;;;14.40;99.90;;;;;;5064434;28;20533;-87
2023/10/29 10:44:56;;;;;;;2.60;2.40;;;14.50;99.90;;;;;;5091093;28;20557;-81
2023/10/29 10:47:27;;;;;;;4.97;3.30;;;14.50;99.90;;;;;;5074330;28;20474;-80
2023/10/29 10:52:45;;;;;;;7.00;6.27;;;14.50;99.90;;;;;;5057910;28;20475;-87
2023/10/29 10:55:27;;;;;;;4.80;4.40;;;14.50;99.90;;;;;;5044762;28;20521;-87
2023/10/29 10:57:55;;;;;;;16.10;12.17;;;14.50;99.90;;;;;;5053632;28;20470;-87
2023/10/29 11:00:22;;;;;;;4.60;3.73;;;14.60;99.90;;;;;;5053950;28;20490;-87
2023/10/29 11:02:55;;;;;;;12.27;4.50;;;14.60;99.90;;;;;;5055240;28;20965;-87
2023/10/29 11:05:29;;;;;;;3.90;2.83;;;14.60;99.90;;;;;;5054568;28;20542;-87
2023/10/29 11:08:00;;;;;;;6.50;2.33;;;14.60;99.90;;;;;;5054225;28;20987;-86
2023/10/29 11:10:28;;;;;;;5.40;4.07;;;14.60;99.90;;;;;;5052992;28;20452;-80
2023/10/29 11:13:21;;;;;;;18.30;12.80;;;14.70;99.90;;;;;;5053139;28;20495;-81
2023/10/29 11:15:49;;;;;;;8.03;6.53;;;14.70;99.90;;;;;;5053828;28;20463;-86
2023/10/29 11:18:16;;;;;;;5.70;4.30;;;14.80;99.90;;;;;;5044943;28;20525;-81
2023/10/29 11:20:56;;;;;;;6.10;4.47;;;14.80;99.90;;;;;;5053806;28;20498;-87
2023/10/29 11:23:26;;;;;;;5.60;2.90;;;14.90;99.90;;;;;;5055138;28;20470;-86
2023/10/29 11:26:25;;;;;;;28.93;22.50;;;15.00;99.90;;;;;;5053557;28;20917;-79
2023/10/29 11:31:43;;;;;;;6.00;4.10;;;15.10;99.90;;;;;;5016576;28;20990;-86
2023/10/29 11:34:46;;;;;;;11.10;8.30;;;15.10;99.90;;;;;;5045592;28;20491;-87
2023/10/29 11:37:37;;;;;;;2.87;2.60;;;15.20;99.90;;;;;;5042209;28;20475;-86
2023/10/29 11:43:22;;;;;;;7.40;5.60;;;15.30;99.90;;;;;;5000733;28;20453;-86
2023/10/29 11:45:56;;;;;;;5.47;4.87;;;15.30;99.90;;;;;;4993230;28;2041157;-86
2023/10/29 11:49:03;;;;;;;4.33;3.93;;;15.30;99.90;;;;;;5083742;28;20466;-86
2023/10/29 11:51:30;;;;;;;6.60;4.50;;;15.40;99.90;;;;;;5078506;28;20505;-80
2023/10/29 11:54:03;;;;;;;23.03;18.40;;;15.40;99.90;;;;;;5079980;28;20496;-86
2023/10/29 11:56:35;;;;;;;14.37;12.40;;;15.40;99.90;;;;;;5078007;28;20465;-87
2023/10/29 11:59:23;;;;;;;8.00;7.20;;;15.40;99.90;;;;;;5056161;28;20470;-86
2023/10/29 12:01:50;;;;;;;4.00;3.43;;;15.50;99.90;;;;;;5090153;28;20469;-87
2023/10/29 12:04:35;;;;;;;5.67;5.10;;;15.50;99.90;;;;;;5073638;28;20514;-86
2023/10/29 12:07:24;;;;;;;43.73;32.57;;;15.50;99.90;;;;;;5092532;28;20466;-80
2023/10/29 12:10:13;;;;;;;7.70;6.90;;;15.50;99.90;;;;;;5097628;28;20564;-86
2023/10/29 12:12:52;;;;;;;12.30;9.50;;;15.50;99.90;;;;;;5086913;28;20465;-87
2023/10/29 12:15:19;;;;;;;11.83;9.03;;;15.60;99.90;;;;;;5096573;28;20471;-87
2023/10/29 12:17:47;;;;;;;15.27;13.33;;;15.60;99.90;;;;;;5067262;28;20968;-86
2023/10/29 12:20:37;;;;;;;20.40;17.27;;;15.60;99.90;;;;;;5095761;28;20481;-86
2023/10/29 12:23:07;;;;;;;32.27;23.93;;;15.70;99.90;;;;;;5064527;28;20475;-81
2023/10/29 12:25:46;;;;;;;27.90;21.47;;;15.70;99.90;;;;;;5073212;28;20513;-87
2023/10/29 12:28:15;;;;;;;42.97;34.63;;;15.70;99.90;;;;;;5088410;28;20452;-81
2023/10/29 12:30:49;;;;;;;17.03;13.13;;;15.80;99.90;;;;;;5097347;28;20809;-81
2023/10/29 12:33:33;;;;;;;19.90;16.00;;;15.80;99.90;;;;;;5083117;28;20480;-87
2023/10/29 12:36:03;;;;;;;32.33;27.10;;;15.80;99.90;;;;;;5077406;28;20473;-87
2023/10/29 12:41:19;;;;;;;25.30;20.33;;;15.90;99.90;;;;;;5068790;28;20473;-86
2023/10/29 12:43:52;;;;;;;21.27;15.17;;;15.90;99.90;;;;;;5099653;28;20460;-80
2023/10/29 12:46:21;;;;;;;9.20;7.63;;;16.00;99.90;;;;;;5096474;28;20560;-81
2023/10/29 12:49:03;;;;;;;23.47;19.27;;;16.00;99.90;;;;;;5097795;28;20540;-80
2023/10/29 12:51:33;;;;;;;18.30;14.97;;;16.00;99.90;;;;;;5096552;28;20471;-80
2023/10/29 12:54:15;;;;;;;24.43;18.93;;;16.00;99.90;;;;;;5097342;28;20466;-80
2023/10/29 12:56:57;;;;;;;7.30;6.23;;;16.00;99.90;;;;;;5096575;28;20478;-80
2023/10/29 12:59:27;;;;;;;9.13;8.03;;;16.00;99.90;;;;;;5097032;28;20457;-81
2023/10/29 13:01:55;;;;;;;25.93;22.17;;;16.00;99.90;;;;;;5097885;28;20453;-80
2023/10/29 13:04:24;;;;;;;24.40;19.30;;;16.00;99.90;;;;;;5097611;28;20523;-81
2023/10/29 13:06:53;;;;;;;12.37;11.07;;;16.00;99.90;;;;;;5081482;28;20480;-81
2023/10/29 13:09:28;;;;;;;14.30;10.50;;;16.00;99.90;;;;;;5098762;28;20512;-81
2023/10/29 13:11:56;;;;;;;32.23;25.53;;;16.00;99.90;;;;;;5097500;28;20559;-81
2023/10/29 13:14:29;;;;;;;25.70;21.20;;;16.10;99.90;;;;;;5098035;28;20457;-80
2023/10/29 13:16:57;;;;;;;12.53;11.23;;;16.10;99.90;;;;;;5104353;28;20469;-79
2023/10/29 13:19:35;;;;;;;17.37;14.27;;;16.10;99.90;;;;;;5101469;28;20453;-82
2023/10/29 13:22:15;;;;;;;12.87;10.53;;;16.10;99.90;;;;;;5083208;28;20560;-81
2023/10/29 13:25:01;;;;;;;;;;;;;;;;;;;;;